sensor_id;sensor_type;location;lat;lon;timestamp;P1;durP1;ratioP1;P2;durP2;ratioP2
32964;SDS011;19317;48.226;11.686;2023-02-28T00:02:34;3.20;;;2.90;;
32964;SDS011;19317;48.226;11.686;2023-02-28T00:07:26;3.50;;;3.20;;
32964;SDS011;19317;48.226;11.686;2023-02-28T00:12:17;4.00;;;3.30;;
32964;SDS011;19317;48.226;11.686;2023-02-28T00:17:07;3.93;;;3.03;;
32964;SDS011;19317;48.226;11.686;2023-02-28T00:21:58;3.43;;;3.07;;
32964;SDS011;19317;48.226;11.686;2023-02-28T00:26:48;3.90;;;3.23;;
32964;SDS011;19317;48.226;11.686;2023-02-28T00:31:39;4.10;;;3.40;;
32964;SDS011;19317;48.226;11.686;2023-02-28T00:36:29;4.23;;;2.97;;
32964;SDS011;19317;48.226;11.686;2023-02-28T00:41:19;3.50;;;3.17;;
32964;SDS011;19317;48.226;11.686;2023-02-28T00:46:10;5.53;;;3.23;;
32964;SDS011;19317;48.226;11.686;2023-02-28T00:51:01;5.13;;;3.50;;
32964;SDS011;19317;48.226;11.686;2023-02-28T00:55:51;3.70;;;3.30;;
32964;SDS011;19317;48.226;11.686;2023-02-28T01:00:42;4.93;;;3.40;;
32964;SDS011;19317;48.226;11.686;2023-02-28T01:05:32;4.27;;;3.17;;
32964;SDS011;19317;48.226;11.686;2023-02-28T01:10:23;3.63;;;3.33;;
32964;SDS011;19317;48.226;11.686;2023-02-28T01:15:14;3.90;;;3.50;;
32964;SDS011;19317;48.226;11.686;2023-02-28T01:20:05;4.13;;;3.73;;
32964;SDS011;19317;48.226;11.686;2023-02-28T01:24:56;5.43;;;3.17;;
32964;SDS011;19317;48.226;11.686;2023-02-28T01:29:46;6.20;;;3.70;;
32964;SDS011;19317;48.226;11.686;2023-02-28T01:34:37;3.63;;;3.20;;
32964;SDS011;19317;48.226;11.686;2023-02-28T01:39:27;3.30;;;3.00;;
32964;SDS011;19317;48.226;11.686;2023-02-28T01:49:45;4.87;;;3.47;;
32964;SDS011;19317;48.226;11.686;2023-02-28T01:54:36;5.43;;;3.20;;
32964;SDS011;19317;48.226;11.686;2023-02-28T01:59:27;3.93;;;3.53;;
32964;SDS011;19317;48.226;11.686;2023-02-28T02:04:26;4.47;;;3.10;;
32964;SDS011;19317;48.226;11.686;2023-02-28T02:09:22;4.80;;;3.30;;
32964;SDS011;19317;48.226;11.686;2023-02-28T02:24:59;3.97;;;3.63;;
32964;SDS011;19317;48.226;11.686;2023-02-28T02:40:30;4.60;;;3.80;;
32964;SDS011;19317;48.226;11.686;2023-02-28T02:45:28;4.17;;;3.67;;
32964;SDS011;19317;48.226;11.686;2023-02-28T02:50:34;4.37;;;3.40;;
32964;SDS011;19317;48.226;11.686;2023-02-28T02:55:29;4.73;;;3.57;;
32964;SDS011;19317;48.226;11.686;2023-02-28T03:00:24;4.00;;;3.60;;
32964;SDS011;19317;48.226;11.686;2023-02-28T03:05:26;6.50;;;3.60;;
32964;SDS011;19317;48.226;11.686;2023-02-28T03:15:26;4.57;;;3.53;;
32964;SDS011;19317;48.226;11.686;2023-02-28T03:26:13;4.20;;;3.80;;
32964;SDS011;19317;48.226;11.686;2023-02-28T03:31:15;4.57;;;3.77;;
32964;SDS011;19317;48.226;11.686;2023-02-28T03:36:11;5.17;;;4.00;;
32964;SDS011;19317;48.226;11.686;2023-02-28T03:41:16;5.13;;;4.20;;
32964;SDS011;19317;48.226;11.686;2023-02-28T03:46:10;5.10;;;4.20;;
32964;SDS011;19317;48.226;11.686;2023-02-28T03:51:04;6.40;;;3.77;;
32964;SDS011;19317;48.226;11.686;2023-02-28T03:56:06;4.97;;;4.40;;
32964;SDS011;19317;48.226;11.686;2023-02-28T04:06:17;6.60;;;4.17;;
32964;SDS011;19317;48.226;11.686;2023-02-28T04:11:29;4.83;;;4.00;;
32964;SDS011;19317;48.226;11.686;2023-02-28T04:16:22;5.67;;;4.57;;
32964;SDS011;19317;48.226;11.686;2023-02-28T04:21:13;4.87;;;4.47;;
32964;SDS011;19317;48.226;11.686;2023-02-28T04:26:03;5.57;;;4.60;;
32964;SDS011;19317;48.226;11.686;2023-02-28T04:30:55;6.07;;;5.27;;
32964;SDS011;19317;48.226;11.686;2023-02-28T04:36:02;5.53;;;4.63;;
32964;SDS011;19317;48.226;11.686;2023-02-28T04:40:56;5.93;;;5.20;;
32964;SDS011;19317;48.226;11.686;2023-02-28T04:45:47;6.40;;;5.37;;
32964;SDS011;19317;48.226;11.686;2023-02-28T04:50:38;5.07;;;4.50;;
32964;SDS011;19317;48.226;11.686;2023-02-28T04:55:28;6.70;;;4.90;;
32964;SDS011;19317;48.226;11.686;2023-02-28T05:00:19;7.17;;;5.07;;
32964;SDS011;19317;48.226;11.686;2023-02-28T05:05:09;6.73;;;5.43;;
32964;SDS011;19317;48.226;11.686;2023-02-28T05:10:00;8.70;;;5.50;;
32964;SDS011;19317;48.226;11.686;2023-02-28T05:14:50;7.03;;;5.57;;
32964;SDS011;19317;48.226;11.686;2023-02-28T05:19:41;6.57;;;5.53;;
32964;SDS011;19317;48.226;11.686;2023-02-28T05:24:31;6.63;;;5.60;;
32964;SDS011;19317;48.226;11.686;2023-02-28T05:29:22;8.07;;;5.60;;
32964;SDS011;19317;48.226;11.686;2023-02-28T05:34:12;7.07;;;5.60;;
32964;SDS011;19317;48.226;11.686;2023-02-28T05:39:03;8.37;;;5.53;;
32964;SDS011;19317;48.226;11.686;2023-02-28T05:43:54;8.63;;;6.20;;
32964;SDS011;19317;48.226;11.686;2023-02-28T05:48:46;6.27;;;5.20;;
32964;SDS011;19317;48.226;11.686;2023-02-28T05:53:37;6.83;;;5.33;;
32964;SDS011;19317;48.226;11.686;2023-02-28T05:58:28;9.33;;;6.00;;
32964;SDS011;19317;48.226;11.686;2023-02-28T06:03:18;6.70;;;5.83;;
32964;SDS011;19317;48.226;11.686;2023-02-28T06:08:09;8.50;;;5.80;;
32964;SDS011;19317;48.226;11.686;2023-02-28T06:13:03;9.23;;;5.00;;
32964;SDS011;19317;48.226;11.686;2023-02-28T06:17:54;8.77;;;5.57;;
32964;SDS011;19317;48.226;11.686;2023-02-28T06:22:45;6.80;;;5.57;;
32964;SDS011;19317;48.226;11.686;2023-02-28T06:27:35;7.53;;;6.33;;
32964;SDS011;19317;48.226;11.686;2023-02-28T06:32:26;11.67;;;7.00;;
32964;SDS011;19317;48.226;11.686;2023-02-28T06:37:17;8.10;;;5.83;;
32964;SDS011;19317;48.226;11.686;2023-02-28T06:42:07;8.17;;;5.67;;
32964;SDS011;19317;48.226;11.686;2023-02-28T06:46:58;7.57;;;6.07;;
32964;SDS011;19317;48.226;11.686;2023-02-28T06:51:48;9.13;;;7.10;;
32964;SDS011;19317;48.226;11.686;2023-02-28T06:56:39;8.40;;;6.53;;
32964;SDS011;19317;48.226;11.686;2023-02-28T07:01:29;9.00;;;6.70;;
32964;SDS011;19317;48.226;11.686;2023-02-28T07:06:23;10.67;;;7.27;;
32964;SDS011;19317;48.226;11.686;2023-02-28T07:11:14;8.97;;;6.73;;
32964;SDS011;19317;48.226;11.686;2023-02-28T07:16:05;9.23;;;7.40;;
32964;SDS011;19317;48.226;11.686;2023-02-28T07:20:57;8.53;;;6.53;;
32964;SDS011;19317;48.226;11.686;2023-02-28T07:25:48;11.10;;;7.77;;
32964;SDS011;19317;48.226;11.686;2023-02-28T07:30:40;10.63;;;7.03;;
32964;SDS011;19317;48.226;11.686;2023-02-28T07:35:31;8.93;;;7.73;;
32964;SDS011;19317;48.226;11.686;2023-02-28T07:40:21;11.03;;;8.00;;
32964;SDS011;19317;48.226;11.686;2023-02-28T07:45:12;10.23;;;7.37;;
32964;SDS011;19317;48.226;11.686;2023-02-28T07:50:02;10.83;;;8.60;;
32964;SDS011;19317;48.226;11.686;2023-02-28T07:54:53;10.20;;;7.33;;
32964;SDS011;19317;48.226;11.686;2023-02-28T07:59:43;11.40;;;8.50;;
32964;SDS011;19317;48.226;11.686;2023-02-28T08:04:34;11.83;;;7.77;;
32964;SDS011;19317;48.226;11.686;2023-02-28T08:09:24;10.50;;;7.40;;
32964;SDS011;19317;48.226;11.686;2023-02-28T08:14:15;10.47;;;7.60;;
32964;SDS011;19317;48.226;11.686;2023-02-28T08:19:06;11.97;;;8.53;;
32964;SDS011;19317;48.226;11.686;2023-02-28T08:23:56;10.60;;;8.23;;
32964;SDS011;19317;48.226;11.686;2023-02-28T08:28:47;10.20;;;8.20;;
32964;SDS011;19317;48.226;11.686;2023-02-28T08:33:37;10.50;;;7.90;;
32964;SDS011;19317;48.226;11.686;2023-02-28T08:38:28;11.17;;;8.87;;
32964;SDS011;19317;48.226;11.686;2023-02-28T08:43:18;11.87;;;7.97;;
32964;SDS011;19317;48.226;11.686;2023-02-28T08:48:09;10.70;;;8.00;;
32964;SDS011;19317;48.226;11.686;2023-02-28T08:52:59;15.43;;;8.80;;
32964;SDS011;19317;48.226;11.686;2023-02-28T08:57:50;11.40;;;7.73;;
32964;SDS011;19317;48.226;11.686;2023-02-28T09:02:40;12.43;;;9.00;;
32964;SDS011;19317;48.226;11.686;2023-02-28T09:07:31;10.73;;;7.53;;
32964;SDS011;19317;48.226;11.686;2023-02-28T09:12:22;11.47;;;8.63;;
32964;SDS011;19317;48.226;11.686;2023-02-28T09:17:16;11.23;;;8.03;;
32964;SDS011;19317;48.226;11.686;2023-02-28T09:22:07;10.80;;;8.07;;
32964;SDS011;19317;48.226;11.686;2023-02-28T09:26:58;10.80;;;8.40;;
32964;SDS011;19317;48.226;11.686;2023-02-28T09:31:48;11.80;;;8.20;;
32964;SDS011;19317;48.226;11.686;2023-02-28T09:36:39;11.27;;;7.97;;
32964;SDS011;19317;48.226;11.686;2023-02-28T09:41:32;9.47;;;7.47;;
32964;SDS011;19317;48.226;11.686;2023-02-28T09:46:32;11.47;;;8.07;;
32964;SDS011;19317;48.226;11.686;2023-02-28T09:51:40;11.23;;;8.63;;
32964;SDS011;19317;48.226;11.686;2023-02-28T09:56:51;11.03;;;7.93;;
32964;SDS011;19317;48.226;11.686;2023-02-28T10:01:45;10.67;;;8.57;;
32964;SDS011;19317;48.226;11.686;2023-02-28T10:06:48;11.00;;;7.23;;
32964;SDS011;19317;48.226;11.686;2023-02-28T10:11:40;11.37;;;7.73;;
32964;SDS011;19317;48.226;11.686;2023-02-28T10:16:35;9.47;;;8.43;;
32964;SDS011;19317;48.226;11.686;2023-02-28T10:21:42;10.77;;;8.30;;
32964;SDS011;19317;48.226;11.686;2023-02-28T10:26:46;10.03;;;8.23;;
32964;SDS011;19317;48.226;11.686;2023-02-28T10:31:38;11.33;;;8.43;;
32964;SDS011;19317;48.226;11.686;2023-02-28T10:36:29;10.03;;;7.50;;
32964;SDS011;19317;48.226;11.686;2023-02-28T10:41:27;10.90;;;7.63;;
32964;SDS011;19317;48.226;11.686;2023-02-28T10:46:19;10.40;;;7.90;;
32964;SDS011;19317;48.226;11.686;2023-02-28T10:51:18;10.40;;;8.30;;
32964;SDS011;19317;48.226;11.686;2023-02-28T11:00:59;10.47;;;7.73;;
32964;SDS011;19317;48.226;11.686;2023-02-28T11:05:50;10.43;;;8.20;;
32964;SDS011;19317;48.226;11.686;2023-02-28T11:10:44;10.27;;;8.33;;
32964;SDS011;19317;48.226;11.686;2023-02-28T11:15:37;12.57;;;7.50;;
32964;SDS011;19317;48.226;11.686;2023-02-28T11:20:28;11.03;;;7.93;;
32964;SDS011;19317;48.226;11.686;2023-02-28T11:25:28;9.33;;;7.40;;
32964;SDS011;19317;48.226;11.686;2023-02-28T11:30:30;9.47;;;6.87;;
32964;SDS011;19317;48.226;11.686;2023-02-28T11:35:23;12.83;;;7.70;;
32964;SDS011;19317;48.226;11.686;2023-02-28T11:40:19;10.23;;;7.07;;
32964;SDS011;19317;48.226;11.686;2023-02-28T11:45:27;9.70;;;7.20;;
32964;SDS011;19317;48.226;11.686;2023-02-28T11:50:54;11.33;;;8.70;;
32964;SDS011;19317;48.226;11.686;2023-02-28T12:07:03;9.90;;;7.33;;
32964;SDS011;19317;48.226;11.686;2023-02-28T12:17:19;9.03;;;7.43;;
32964;SDS011;19317;48.226;11.686;2023-02-28T12:27:20;9.77;;;7.67;;
32964;SDS011;19317;48.226;11.686;2023-02-28T12:32:16;8.20;;;7.27;;
32964;SDS011;19317;48.226;11.686;2023-02-28T12:37:14;9.70;;;7.27;;
32964;SDS011;19317;48.226;11.686;2023-02-28T12:42:13;9.23;;;7.30;;
32964;SDS011;19317;48.226;11.686;2023-02-28T12:47:25;10.00;;;7.63;;
32964;SDS011;19317;48.226;11.686;2023-02-28T12:52:17;9.93;;;7.20;;
32964;SDS011;19317;48.226;11.686;2023-02-28T12:57:18;8.90;;;7.17;;
32964;SDS011;19317;48.226;11.686;2023-02-28T13:12:20;10.20;;;7.37;;
32964;SDS011;19317;48.226;11.686;2023-02-28T13:17:11;10.30;;;7.33;;
32964;SDS011;19317;48.226;11.686;2023-02-28T13:22:17;9.80;;;7.37;;
32964;SDS011;19317;48.226;11.686;2023-02-28T13:27:11;8.50;;;7.23;;
32964;SDS011;19317;48.226;11.686;2023-02-28T13:47:21;9.00;;;7.00;;
32964;SDS011;19317;48.226;11.686;2023-02-28T13:52:18;7.17;;;6.43;;
32964;SDS011;19317;48.226;11.686;2023-02-28T13:57:22;8.20;;;7.27;;
32964;SDS011;19317;48.226;11.686;2023-02-28T14:17:44;7.50;;;6.40;;
32964;SDS011;19317;48.226;11.686;2023-02-28T14:22:53;7.97;;;6.73;;
32964;SDS011;19317;48.226;11.686;2023-02-28T14:33:11;8.83;;;6.60;;
32964;SDS011;19317;48.226;11.686;2023-02-28T14:38:25;7.37;;;6.63;;
32964;SDS011;19317;48.226;11.686;2023-02-28T14:43:21;8.10;;;6.57;;
32964;SDS011;19317;48.226;11.686;2023-02-28T14:48:15;7.40;;;6.70;;
32964;SDS011;19317;48.226;11.686;2023-02-28T14:53:10;8.30;;;7.13;;
32964;SDS011;19317;48.226;11.686;2023-02-28T14:58:17;10.30;;;6.90;;
32964;SDS011;19317;48.226;11.686;2023-02-28T15:03:18;7.43;;;6.57;;
32964;SDS011;19317;48.226;11.686;2023-02-28T15:08:12;9.23;;;6.60;;
32964;SDS011;19317;48.226;11.686;2023-02-28T15:13:06;7.57;;;6.73;;
32964;SDS011;19317;48.226;11.686;2023-02-28T15:18:00;7.57;;;6.50;;
32964;SDS011;19317;48.226;11.686;2023-02-28T15:22:55;7.97;;;7.17;;
32964;SDS011;19317;48.226;11.686;2023-02-28T15:27:47;9.33;;;7.13;;
32964;SDS011;19317;48.226;11.686;2023-02-28T15:32:40;7.93;;;6.77;;
32964;SDS011;19317;48.226;11.686;2023-02-28T15:37:39;8.27;;;7.17;;
32964;SDS011;19317;48.226;11.686;2023-02-28T15:42:34;7.83;;;7.00;;
32964;SDS011;19317;48.226;11.686;2023-02-28T15:47:26;8.93;;;6.93;;
32964;SDS011;19317;48.226;11.686;2023-02-28T15:52:20;9.07;;;7.00;;
32964;SDS011;19317;48.226;11.686;2023-02-28T15:57:18;8.90;;;7.03;;
32964;SDS011;19317;48.226;11.686;2023-02-28T16:02:19;8.53;;;6.90;;
32964;SDS011;19317;48.226;11.686;2023-02-28T16:07:11;8.80;;;7.00;;
32964;SDS011;19317;48.226;11.686;2023-02-28T16:12:08;8.63;;;6.97;;
32964;SDS011;19317;48.226;11.686;2023-02-28T16:17:03;8.90;;;6.83;;
32964;SDS011;19317;48.226;11.686;2023-02-28T16:21:56;8.07;;;7.07;;
32964;SDS011;19317;48.226;11.686;2023-02-28T16:26:47;10.10;;;6.60;;
32964;SDS011;19317;48.226;11.686;2023-02-28T16:31:40;8.50;;;7.00;;
32964;SDS011;19317;48.226;11.686;2023-02-28T16:36:31;9.73;;;7.40;;
32964;SDS011;19317;48.226;11.686;2023-02-28T16:41:22;8.13;;;6.90;;
32964;SDS011;19317;48.226;11.686;2023-02-28T16:46:15;9.20;;;7.17;;
32964;SDS011;19317;48.226;11.686;2023-02-28T16:51:14;7.60;;;6.80;;
32964;SDS011;19317;48.226;11.686;2023-02-28T16:56:06;8.57;;;6.90;;
32964;SDS011;19317;48.226;11.686;2023-02-28T17:01:02;9.80;;;7.70;;
32964;SDS011;19317;48.226;11.686;2023-02-28T17:05:53;9.00;;;7.17;;
32964;SDS011;19317;48.226;11.686;2023-02-28T17:10:44;9.80;;;7.47;;
32964;SDS011;19317;48.226;11.686;2023-02-28T17:15:35;8.97;;;6.90;;
32964;SDS011;19317;48.226;11.686;2023-02-28T17:20:27;9.73;;;7.50;;
32964;SDS011;19317;48.226;11.686;2023-02-28T17:25:17;12.03;;;7.23;;
32964;SDS011;19317;48.226;11.686;2023-02-28T17:30:18;9.97;;;7.17;;
32964;SDS011;19317;48.226;11.686;2023-02-28T17:35:11;8.20;;;7.30;;
32964;SDS011;19317;48.226;11.686;2023-02-28T17:40:03;11.33;;;7.77;;
32964;SDS011;19317;48.226;11.686;2023-02-28T17:44:54;9.47;;;6.90;;
32964;SDS011;19317;48.226;11.686;2023-02-28T17:49:44;12.50;;;8.10;;
32964;SDS011;19317;48.226;11.686;2023-02-28T17:54:35;9.57;;;7.60;;
32964;SDS011;19317;48.226;11.686;2023-02-28T17:59:25;8.83;;;7.40;;
32964;SDS011;19317;48.226;11.686;2023-02-28T18:04:16;9.07;;;7.13;;
32964;SDS011;19317;48.226;11.686;2023-02-28T18:09:06;11.50;;;7.90;;
32964;SDS011;19317;48.226;11.686;2023-02-28T18:13:58;9.57;;;7.80;;
32964;SDS011;19317;48.226;11.686;2023-02-28T18:18:48;11.93;;;8.90;;
32964;SDS011;19317;48.226;11.686;2023-02-28T18:23:39;9.37;;;8.03;;
32964;SDS011;19317;48.226;11.686;2023-02-28T18:28:30;12.50;;;8.70;;
32964;SDS011;19317;48.226;11.686;2023-02-28T18:33:21;10.20;;;8.60;;
32964;SDS011;19317;48.226;11.686;2023-02-28T18:38:15;10.87;;;8.37;;
32964;SDS011;19317;48.226;11.686;2023-02-28T18:43:07;11.33;;;8.17;;
32964;SDS011;19317;48.226;11.686;2023-02-28T18:47:58;11.27;;;8.40;;
32964;SDS011;19317;48.226;11.686;2023-02-28T18:52:48;10.50;;;9.03;;
32964;SDS011;19317;48.226;11.686;2023-02-28T18:57:39;11.57;;;8.97;;
32964;SDS011;19317;48.226;11.686;2023-02-28T19:02:29;12.53;;;8.90;;
32964;SDS011;19317;48.226;11.686;2023-02-28T19:07:20;11.90;;;8.60;;
32964;SDS011;19317;48.226;11.686;2023-02-28T19:12:10;11.40;;;9.03;;
32964;SDS011;19317;48.226;11.686;2023-02-28T19:17:01;11.80;;;8.70;;
32964;SDS011;19317;48.226;11.686;2023-02-28T19:21:51;11.57;;;8.70;;
32964;SDS011;19317;48.226;11.686;2023-02-28T19:26:42;15.03;;;9.33;;
32964;SDS011;19317;48.226;11.686;2023-02-28T19:31:32;13.47;;;9.20;;
32964;SDS011;19317;48.226;11.686;2023-02-28T19:36:22;12.57;;;9.40;;
32964;SDS011;19317;48.226;11.686;2023-02-28T19:41:14;13.27;;;9.30;;
32964;SDS011;19317;48.226;11.686;2023-02-28T19:46:05;12.73;;;10.03;;
32964;SDS011;19317;48.226;11.686;2023-02-28T19:50:57;14.17;;;9.83;;
32964;SDS011;19317;48.226;11.686;2023-02-28T19:55:53;12.47;;;9.43;;
32964;SDS011;19317;48.226;11.686;2023-02-28T20:00:44;12.73;;;9.47;;
32964;SDS011;19317;48.226;11.686;2023-02-28T20:05:34;12.47;;;9.93;;
32964;SDS011;19317;48.226;11.686;2023-02-28T20:10:25;17.03;;;9.97;;
32964;SDS011;19317;48.226;11.686;2023-02-28T20:15:15;12.37;;;9.70;;
32964;SDS011;19317;48.226;11.686;2023-02-28T20:20:06;13.43;;;9.83;;
32964;SDS011;19317;48.226;11.686;2023-02-28T20:24:58;13.83;;;9.43;;
32964;SDS011;19317;48.226;11.686;2023-02-28T20:29:48;13.27;;;9.63;;
32964;SDS011;19317;48.226;11.686;2023-02-28T20:34:38;12.23;;;9.30;;
32964;SDS011;19317;48.226;11.686;2023-02-28T20:39:29;14.33;;;9.97;;
32964;SDS011;19317;48.226;11.686;2023-02-28T20:44:19;13.50;;;10.30;;
32964;SDS011;19317;48.226;11.686;2023-02-28T20:49:10;12.50;;;10.20;;
32964;SDS011;19317;48.226;11.686;2023-02-28T20:54:00;13.30;;;9.60;;
32964;SDS011;19317;48.226;11.686;2023-02-28T20:58:52;13.60;;;10.00;;
32964;SDS011;19317;48.226;11.686;2023-02-28T21:03:44;13.33;;;9.73;;
32964;SDS011;19317;48.226;11.686;2023-02-28T21:08:40;13.40;;;9.70;;
32964;SDS011;19317;48.226;11.686;2023-02-28T21:13:31;11.73;;;9.40;;
32964;SDS011;19317;48.226;11.686;2023-02-28T21:18:21;12.53;;;9.23;;
32964;SDS011;19317;48.226;11.686;2023-02-28T21:23:12;11.93;;;9.60;;
32964;SDS011;19317;48.226;11.686;2023-02-28T21:28:02;12.23;;;9.93;;
32964;SDS011;19317;48.226;11.686;2023-02-28T21:32:53;13.43;;;10.37;;
32964;SDS011;19317;48.226;11.686;2023-02-28T21:37:43;12.97;;;9.70;;
32964;SDS011;19317;48.226;11.686;2023-02-28T21:42:34;13.00;;;9.90;;
32964;SDS011;19317;48.226;11.686;2023-02-28T21:47:24;14.73;;;9.90;;
32964;SDS011;19317;48.226;11.686;2023-02-28T21:52:16;12.40;;;9.70;;
32964;SDS011;19317;48.226;11.686;2023-02-28T21:57:07;14.67;;;9.83;;
32964;SDS011;19317;48.226;11.686;2023-02-28T22:01:57;11.40;;;9.20;;
32964;SDS011;19317;48.226;11.686;2023-02-28T22:06:49;12.90;;;9.10;;
32964;SDS011;19317;48.226;11.686;2023-02-28T22:11:44;13.23;;;10.00;;
32964;SDS011;19317;48.226;11.686;2023-02-28T22:16:35;13.33;;;9.57;;
32964;SDS011;19317;48.226;11.686;2023-02-28T22:21:25;12.83;;;9.47;;
32964;SDS011;19317;48.226;11.686;2023-02-28T22:26:19;14.17;;;9.63;;
32964;SDS011;19317;48.226;11.686;2023-02-28T22:31:24;12.27;;;9.83;;
32964;SDS011;19317;48.226;11.686;2023-02-28T22:36:16;13.50;;;9.53;;
32964;SDS011;19317;48.226;11.686;2023-02-28T22:41:07;15.43;;;10.03;;
32964;SDS011;19317;48.226;11.686;2023-02-28T22:46:02;13.37;;;9.70;;
32964;SDS011;19317;48.226;11.686;2023-02-28T22:51:00;14.70;;;9.63;;
32964;SDS011;19317;48.226;11.686;2023-02-28T22:55:55;13.47;;;9.53;;
32964;SDS011;19317;48.226;11.686;2023-02-28T23:00:45;13.53;;;10.03;;
32964;SDS011;19317;48.226;11.686;2023-02-28T23:05:36;13.33;;;10.43;;
32964;SDS011;19317;48.226;11.686;2023-02-28T23:10:26;16.47;;;10.20;;
32964;SDS011;19317;48.226;11.686;2023-02-28T23:15:17;13.97;;;9.80;;
32964;SDS011;19317;48.226;11.686;2023-02-28T23:20:13;15.30;;;10.43;;
32964;SDS011;19317;48.226;11.686;2023-02-28T23:25:05;13.07;;;10.37;;
32964;SDS011;19317;48.226;11.686;2023-02-28T23:29:56;13.93;;;10.03;;
32964;SDS011;19317;48.226;11.686;2023-02-28T23:34:47;14.03;;;10.10;;
32964;SDS011;19317;48.226;11.686;2023-02-28T23:39:37;13.87;;;10.43;;
32964;SDS011;19317;48.226;11.686;2023-02-28T23:44:28;13.27;;;10.37;;
32964;SDS011;19317;48.226;11.686;2023-02-28T23:49:19;13.43;;;9.90;;
32964;SDS011;19317;48.226;11.686;2023-02-28T23:54:10;15.63;;;10.17;;
32964;SDS011;19317;48.226;11.686;2023-02-28T23:59:00;12.73;;;10.13;;
